Time;durP1;ratioP1;P1;durP2;ratioP2;P2;SDS_P1;SDS_P2;PMS_P1;PMS_P2;Temp;Humidity;BMP_temperature;BMP_pressure;BME280_temperature;BME280_humidity;BME280_pressure;Samples;Min_cycle;Max_cycle;Signal;HPM_P1;HPM_P2
2021/05/27 00:02:26;;;;;;;11.15;6.90;;;;;;;15.59;100.00;99563.37;1709173;83;21170;-64
2021/05/27 00:04:53;;;;;;;12.28;7.28;;;;;;;15.62;100.00;99563.53;1706868;83;21055;-64
2021/05/27 00:07:21;;;;;;;8.08;6.85;;;;;;;15.68;100.00;99563.60;1705494;83;21076;-65
2021/05/27 00:09:49;;;;;;;10.88;7.30;;;;;;;15.72;100.00;99562.22;1704594;83;21578;-64
2021/05/27 00:12:16;;;;;;;11.97;7.72;;;;;;;15.74;100.00;99559.41;1702424;83;21059;-65
2021/05/27 00:14:44;;;;;;;7.72;6.80;;;;;;;15.74;100.00;99555.92;1677338;83;21051;-65
2021/05/27 00:17:11;;;;;;;7.80;7.00;;;;;;;15.74;100.00;99559.92;1696329;83;21058;-65
2021/05/27 00:19:38;;;;;;;15.95;8.30;;;;;;;15.75;100.00;99550.41;1708528;83;21092;-65
2021/05/27 00:22:06;;;;;;;11.35;8.28;;;;;;;15.77;100.00;99548.38;1705830;83;21090;-65
2021/05/27 00:24:36;;;;;;;12.30;8.40;;;;;;;15.81;100.00;99554.17;1703266;83;21074;-65
2021/05/27 00:27:05;;;;;;;11.35;7.55;;;;;;;15.84;100.00;99555.12;1698204;83;21140;-64
2021/05/27 00:29:31;;;;;;;9.53;7.10;;;;;;;15.85;100.00;99545.61;1699291;83;21648;-65
2021/05/27 00:31:58;;;;;;;10.43;7.45;;;;;;;15.89;100.00;99546.88;1680055;83;21027;-65
2021/05/27 00:34:25;;;;;;;10.68;7.37;;;;;;;15.92;100.00;99543.03;1708352;82;21080;-65
2021/05/27 00:36:52;;;;;;;10.48;7.70;;;;;;;15.94;100.00;99545.00;1656176;83;21063;-65
2021/05/27 00:39:19;;;;;;;10.68;8.03;;;;;;;15.94;100.00;99537.01;1690182;83;21104;-65
2021/05/27 00:41:45;;;;;;;9.43;7.62;;;;;;;15.90;100.00;99539.22;1699154;83;21054;-65
2021/05/27 00:44:27;;;;;;;10.93;7.22;;;;;;;15.88;100.00;99540.42;1706373;83;21060;-65
2021/05/27 00:46:57;;;;;;;10.70;6.47;;;;;;;15.87;100.00;99545.42;1714191;83;21115;-65
2021/05/27 00:49:24;;;;;;;8.80;6.80;;;;;;;15.86;100.00;99542.42;1703636;83;21053;-65
2021/05/27 00:51:51;;;;;;;10.85;8.45;;;;;;;15.82;100.00;99541.15;1679145;83;21050;-65
2021/05/27 00:54:18;;;;;;;9.45;8.10;;;;;;;15.79;100.00;99538.88;1699053;83;21050;-65
2021/05/27 00:56:47;;;;;;;11.73;6.75;;;;;;;15.79;100.00;99537.54;1709396;83;21634;-65
2021/05/27 00:59:15;;;;;;;8.48;6.80;;;;;;;15.80;100.00;99538.66;1702998;83;21064;-65
2021/05/27 01:01:43;;;;;;;7.10;6.28;;;;;;;15.84;100.00;99533.30;1688949;83;21063;-65
2021/05/27 01:04:10;;;;;;;10.55;6.80;;;;;;;15.83;100.00;99531.64;1709774;83;21086;-65
2021/05/27 01:06:37;;;;;;;9.00;7.37;;;;;;;15.84;100.00;99535.13;1702923;83;21068;-65
2021/05/27 01:09:05;;;;;;;15.30;8.63;;;;;;;15.81;100.00;99532.33;1704994;83;21075;-65
2021/05/27 01:11:34;;;;;;;8.88;7.60;;;;;;;15.78;100.00;99533.20;1715097;83;21611;-65
2021/05/27 01:17:04;;;;;;;11.05;8.23;;;;;;;15.81;100.00;99530.18;1703784;83;21074;-65
2021/05/27 01:19:31;;;;;;;10.15;7.75;;;;;;;15.82;100.00;99531.33;1683177;83;21052;-65
2021/05/27 01:21:58;;;;;;;10.82;8.60;;;;;;;15.83;100.00;99533.48;1705087;83;21120;-65
2021/05/27 01:24:25;;;;;;;13.35;7.47;;;;;;;15.79;100.00;99530.36;1697811;83;21559;-65
2021/05/27 01:26:53;;;;;;;11.70;7.37;;;;;;;15.78;100.00;99531.88;1704794;83;21592;-65
2021/05/27 01:29:19;;;;;;;12.75;8.10;;;;;;;15.77;100.00;99528.91;1670445;83;21076;-65
2021/05/27 01:31:47;;;;;;;12.63;8.20;;;;;;;15.74;100.00;99532.75;1703755;83;21162;-65
2021/05/27 01:34:14;;;;;;;11.35;8.93;;;;;;;15.69;100.00;99533.28;1687172;82;21071;-65
2021/05/27 01:36:47;;;;;;;13.28;8.93;;;;;;;15.65;100.00;99527.98;1708828;83;21606;-65
2021/05/27 01:39:14;;;;;;;13.55;8.20;;;;;;;15.61;100.00;99528.55;1690051;83;21063;-65
2021/05/27 01:41:41;;;;;;;11.08;7.42;;;;;;;15.59;100.00;99538.05;1708440;83;21057;-65
2021/05/27 01:44:09;;;;;;;10.10;8.05;;;;;;;15.61;100.00;99539.20;1706661;83;21067;-65
2021/05/27 01:46:35;;;;;;;11.25;8.55;;;;;;;15.63;100.00;99530.52;1707130;83;21038;-65
2021/05/27 01:49:04;;;;;;;13.45;9.23;;;;;;;15.61;100.00;99525.88;1703997;83;21643;-65
2021/05/27 01:51:30;;;;;;;12.03;9.00;;;;;;;15.58;100.00;99537.75;1708433;83;21087;-65
2021/05/27 01:54:00;;;;;;;12.13;8.10;;;;;;;15.54;100.00;99540.44;1699937;83;21146;-66
2021/05/27 01:56:26;;;;;;;16.02;7.87;;;;;;;15.54;100.00;99535.10;1704775;83;21064;-65
2021/05/27 01:59:03;;;;;;;12.03;8.10;;;;;;;15.56;100.00;99531.78;1718659;83;21079;-65
2021/05/27 02:01:32;;;;;;;13.13;9.35;;;;;;;15.57;100.00;99529.93;1706738;83;21113;-65
2021/05/27 02:03:58;;;;;;;11.83;9.05;;;;;;;15.56;100.00;99534.92;1712090;83;21670;-65
2021/05/27 02:06:25;;;;;;;10.43;8.60;;;;;;;15.52;100.00;99525.13;1704066;83;21138;-64
2021/05/27 02:09:10;;;;;;;10.03;8.05;;;;;;;15.50;100.00;99524.02;1690259;83;21059;-65
2021/05/27 02:11:48;;;;;;;13.68;8.90;;;;;;;15.52;100.00;99521.98;1698821;83;21075;-65
2021/05/27 02:14:19;;;;;;;11.60;8.83;;;;;;;15.55;100.00;99520.78;1699617;83;21075;-65
2021/05/27 02:16:47;;;;;;;12.45;8.40;;;;;;;15.53;100.00;99528.95;1709679;83;21053;-65
2021/05/27 02:19:14;;;;;;;12.65;9.45;;;;;;;15.53;100.00;99525.47;1710209;83;21056;-65
2021/05/27 02:21:45;;;;;;;12.13;9.10;;;;;;;15.49;100.00;99530.34;1679157;83;21098;-65
2021/05/27 02:24:14;;;;;;;16.37;8.65;;;;;;;15.50;100.00;99534.67;1714123;83;21109;-65
2021/05/27 02:26:41;;;;;;;14.10;8.03;;;;;;;15.51;100.00;99532.83;1718790;83;21053;-65
2021/05/27 02:29:12;;;;;;;13.43;8.55;;;;;;;15.54;100.00;99527.11;1701740;83;21084;-65
2021/05/27 02:31:41;;;;;;;12.68;9.98;;;;;;;15.54;100.00;99520.45;1717145;83;21064;-65
2021/05/27 02:34:10;;;;;;;13.53;8.10;;;;;;;15.50;100.00;99530.67;1716794;83;21042;-65
2021/05/27 02:36:38;;;;;;;10.55;7.90;;;;;;;15.50;100.00;99520.50;1702287;83;21095;-66
2021/05/27 02:39:07;;;;;;;15.98;9.08;;;;;;;15.51;100.00;99513.66;1680324;83;21056;-65
2021/05/27 02:41:41;;;;;;;15.13;8.88;;;;;;;15.52;100.00;99512.66;1715015;83;21063;-65
2021/05/27 02:44:08;;;;;;;11.68;9.98;;;;;;;15.57;100.00;99513.94;1707180;83;21569;-65
2021/05/27 02:46:39;;;;;;;14.35;9.50;;;;;;;15.56;100.00;99511.79;1701923;83;21072;-64
2021/05/27 02:49:07;;;;;;;14.18;9.00;;;;;;;15.58;100.00;99518.23;1708980;83;21098;-64
2021/05/27 02:51:35;;;;;;;11.63;8.35;;;;;;;15.64;100.00;99511.68;1687253;83;21634;-64
2021/05/27 02:54:04;;;;;;;11.93;8.95;;;;;;;15.70;100.00;99504.27;1706774;83;21544;-64
2021/05/27 02:56:30;;;;;;;13.62;9.73;;;;;;;15.75;100.00;99506.91;1690390;84;21012;-65
2021/05/27 02:58:58;;;;;;;12.10;8.68;;;;;;;15.77;100.00;99508.39;1693956;83;21075;-64
2021/05/27 03:01:26;;;;;;;14.43;8.25;;;;;;;15.80;100.00;99501.85;1680991;83;21108;-64
2021/05/27 03:03:54;;;;;;;11.35;7.80;;;;;;;15.84;100.00;99502.64;1700091;83;21160;-65
2021/05/27 03:06:20;;;;;;;11.68;8.88;;;;;;;15.91;100.00;99503.52;1719192;83;21066;-64
2021/05/27 03:08:49;;;;;;;13.60;8.95;;;;;;;15.98;100.00;99496.13;1712108;83;21064;-65
2021/05/27 03:11:18;;;;;;;14.15;10.50;;;;;;;16.04;100.00;99496.19;1712286;83;21572;-65
2021/05/27 03:13:47;;;;;;;17.57;10.38;;;;;;;16.10;100.00;99497.28;1702312;83;21653;-65
2021/05/27 03:16:16;;;;;;;14.87;9.10;;;;;;;16.14;99.92;99495.06;1673564;83;21087;-64
2021/05/27 03:18:45;;;;;;;15.00;9.58;;;;;;;16.17;99.77;99490.69;1710081;83;21077;-64
2021/05/27 03:21:11;;;;;;;12.15;9.90;;;;;;;16.22;99.52;99490.44;1679338;83;21190;-65
2021/05/27 03:23:39;;;;;;;13.58;10.55;;;;;;;16.26;99.42;99488.23;1680843;84;21080;-65
2021/05/27 03:26:05;;;;;;;16.60;11.63;;;;;;;16.26;99.39;99497.56;1703930;83;21060;-65
2021/05/27 03:28:33;;;;;;;16.45;11.97;;;;;;;16.28;99.22;99498.20;1701423;83;21119;-65
2021/05/27 03:31:01;;;;;;;15.43;10.10;;;;;;;16.32;98.97;99498.64;1698330;83;21582;-64
2021/05/27 03:33:30;;;;;;;11.30;9.43;;;;;;;16.35;98.88;99494.28;1683102;83;21138;-64
2021/05/27 03:35:56;;;;;;;13.15;10.63;;;;;;;16.40;98.39;99498.02;1698910;83;21644;-64
2021/05/27 03:38:23;;;;;;;14.28;10.88;;;;;;;16.44;97.96;99501.95;1699660;83;21094;-64
2021/05/27 03:40:51;;;;;;;16.50;11.85;;;;;;;16.48;97.68;99507.23;1698129;83;21154;-64
2021/05/27 03:43:19;;;;;;;22.85;11.75;;;;;;;16.52;97.57;99497.52;1719592;83;21694;-65
2021/05/27 03:45:45;;;;;;;16.60;9.68;;;;;;;16.56;97.13;99500.11;1678345;84;21059;-65
2021/05/27 03:48:16;;;;;;;14.87;10.15;;;;;;;16.62;96.68;99495.33;1694184;83;21107;-65
2021/05/27 03:50:45;;;;;;;13.30;10.48;;;;;;;16.71;96.12;99496.85;1707079;83;21099;-65
2021/05/27 03:53:13;;;;;;;14.18;10.65;;;;;;;16.77;95.89;99500.08;1697856;83;21575;-65
2021/05/27 03:55:41;;;;;;;13.85;10.45;;;;;;;16.81;95.40;99500.52;1709051;83;21058;-65
2021/05/27 04:00:55;;;;;;;11.20;8.50;;;;;;;16.83;94.88;99498.03;1696843;83;21078;-65
2021/05/27 04:07:08;;;;;;;12.43;9.10;;;;;;;16.84;94.96;99492.17;1668703;85;21095;-65
2021/05/27 04:08:47;;;;;;;14.63;9.73;;;;;;;16.91;94.80;99492.20;1697455;83;21552;-65
2021/05/27 04:11:15;;;;;;;14.58;10.18;;;;;;;16.94;94.90;99494.50;1704518;83;21609;-64
2021/05/27 04:13:42;;;;;;;13.35;10.23;;;;;;;16.98;94.86;99496.60;1683296;84;21027;-65
2021/05/27 04:16:09;;;;;;;13.85;9.70;;;;;;;17.05;94.39;99493.96;1708780;83;21610;-64
2021/05/27 04:18:36;;;;;;;11.75;9.55;;;;;;;17.15;94.09;99498.95;1699249;83;21075;-64
2021/05/27 04:21:05;;;;;;;10.70;9.50;;;;;;;17.25;93.23;99496.26;1683650;83;21618;-64
2021/05/27 04:23:40;;;;;;;11.15;9.50;;;;;;;17.37;92.45;99494.38;1701575;83;21084;-64
2021/05/27 04:26:06;;;;;;;12.78;9.55;;;;;;;17.45;91.78;99484.88;1708530;83;21095;-65
2021/05/27 04:28:32;;;;;;;12.88;9.40;;;;;;;17.56;91.38;99488.81;1712477;83;21027;-65
2021/05/27 04:31:15;;;;;;;12.20;8.85;;;;;;;17.65;90.71;99489.78;1706632;83;21075;-64
2021/05/27 04:33:53;;;;;;;9.25;7.15;;;;;;;17.78;89.94;99486.34;1711584;83;21061;-63
2021/05/27 04:36:20;;;;;;;8.45;6.50;;;;;;;17.95;89.18;99485.51;1692954;83;21111;-65
2021/05/27 04:38:50;;;;;;;7.05;6.35;;;;;;;18.12;87.24;99485.97;1704696;83;21539;-63
2021/05/27 04:41:17;;;;;;;8.90;8.05;;;;;;;18.24;84.77;99486.22;1704075;83;21188;-65
2021/05/27 04:43:46;;;;;;;13.68;8.00;;;;;;;18.37;84.74;99494.80;1687767;84;21059;-65
2021/05/27 04:46:15;;;;;;;12.13;7.70;;;;;;;18.51;83.86;99489.75;1705615;83;21626;-66
2021/05/27 04:48:42;;;;;;;9.80;7.25;;;;;;;18.73;82.91;99492.25;1700365;83;21080;-65
2021/05/27 04:51:08;;;;;;;8.80;5.20;;;;;;;18.96;81.56;99493.19;1687903;83;21083;-65
2021/05/27 04:53:35;;;;;;;8.25;5.85;;;;;;;19.14;78.98;99496.59;1715680;83;21055;-64
2021/05/27 04:56:04;;;;;;;6.75;6.15;;;;;;;19.35;76.91;99486.94;1707506;83;21098;-65
2021/05/27 04:58:32;;;;;;;8.65;6.00;;;;;;;19.56;76.19;99484.53;1685445;84;21060;-65
2021/05/27 05:00:59;;;;;;;9.68;7.58;;;;;;;19.84;74.60;99487.95;1720654;83;21151;-64
2021/05/27 05:03:26;;;;;;;13.22;9.13;;;;;;;20.08;72.22;99489.89;1717666;82;21693;-64
2021/05/27 05:05:53;;;;;;;11.78;9.40;;;;;;;20.32;71.14;99482.94;1719652;82;21107;-66
2021/05/27 05:08:20;;;;;;;11.97;9.15;;;;;;;20.57;70.12;99494.23;1719054;82;21056;-65
2021/05/27 05:10:48;;;;;;;14.10;10.65;;;;;;;20.83;69.22;99490.55;1730283;81;21068;-66
2021/05/27 05:13:14;;;;;;;14.55;10.75;;;;;;;21.40;66.35;99490.95;1697174;84;21091;-65
2021/05/27 05:15:43;;;;;;;16.37;10.68;;;;;;;21.40;66.35;99490.95;1690864;84;21645;-68
2021/05/27 05:18:13;;;;;;;12.43;10.25;;;;;;;21.69;65.05;99485.36;1701934;81;21164;-68
2021/05/27 05:20:44;;;;;;;13.88;9.40;;;;;;;21.95;64.09;99486.08;1701348;81;21087;-67
2021/05/27 05:23:13;;;;;;;13.83;10.35;;;;;;;22.25;62.73;99482.88;1699642;83;21072;-66
2021/05/27 05:25:40;;;;;;;13.75;10.60;;;;;;;22.59;61.32;99483.73;1721896;82;21047;-66
2021/05/27 05:28:08;;;;;;;13.95;9.03;;;;;;;22.86;60.15;99486.83;1696698;82;21072;-65
2021/05/27 05:30:34;;;;;;;11.08;7.80;;;;;;;23.12;58.59;99488.78;1684493;84;21130;-66
2021/05/27 05:33:03;;;;;;;11.18;8.00;;;;;;;23.12;57.26;99490.13;1687366;84;21089;-65
2021/05/27 05:35:30;;;;;;;9.30;7.47;;;;;;;22.96;56.60;99487.59;1664197;85;21155;-67
2021/05/27 05:37:58;;;;;;;11.30;8.23;;;;;;;22.79;57.16;99482.88;1711937;82;21072;-66
2021/05/27 05:40:27;;;;;;;11.88;7.78;;;;;;;22.76;57.25;99477.98;1697845;82;21146;-68
2021/05/27 05:42:55;;;;;;;10.72;7.60;;;;;;;22.91;57.27;99474.80;1666333;84;21053;-67
2021/05/27 05:45:22;;;;;;;15.03;7.03;;;;;;;23.01;56.99;99474.23;1674822;84;21169;-67
2021/05/27 05:47:50;;;;;;;8.90;6.35;;;;;;;23.22;55.58;99476.89;1673644;84;21574;-67
2021/05/27 05:51:04;;;;;;;8.33;6.58;;;;;;;23.57;54.81;99478.19;1671519;84;21118;-66
2021/05/27 05:52:47;;;;;;;6.87;5.95;;;;;;;24.04;52.88;99471.84;1679642;82;21642;-68
2021/05/27 05:55:14;;;;;;;7.85;5.83;;;;;;;24.33;52.19;99471.80;1696092;83;21036;-66
2021/05/27 05:57:40;;;;;;;9.88;6.10;;;;;;;24.55;50.91;99471.41;1723947;83;21081;-67
2021/05/27 06:00:09;;;;;;;7.25;5.95;;;;;;;24.74;49.79;99469.81;1704239;83;21186;-65
2021/05/27 06:02:43;;;;;;;9.03;5.53;;;;;;;24.90;49.10;99473.59;1706561;83;21059;-68
2021/05/27 06:05:13;;;;;;;6.30;5.58;;;;;;;25.14;48.51;99468.27;1714805;82;21051;-68
2021/05/27 06:08:00;;;;;;;7.90;6.22;;;;;;;25.36;47.72;99468.84;1701927;82;21030;-71
2021/05/27 06:10:28;;;;;;;6.35;5.37;;;;;;;25.47;47.06;99467.91;1715256;82;21630;-70
2021/05/27 06:12:57;;;;;;;7.53;6.25;;;;;;;25.64;46.70;99462.97;1725887;82;21671;-68
2021/05/27 06:15:25;;;;;;;7.58;5.40;;;;;;;25.72;46.35;99473.38;1726884;81;21126;-69
2021/05/27 06:17:52;;;;;;;13.45;5.65;;;;;;;25.93;45.96;99471.73;1726842;82;21070;-68
2021/05/27 06:20:20;;;;;;;5.80;5.30;;;;;;;25.94;45.09;99472.00;1714156;82;21083;-68
2021/05/27 06:22:50;;;;;;;5.83;5.20;;;;;;;25.78;45.18;99472.89;1665052;83;21044;-68
2021/05/27 06:25:18;;;;;;;6.08;5.05;;;;;;;25.44;45.68;99474.34;1717070;83;21064;-69
2021/05/27 06:27:45;;;;;;;7.90;5.75;;;;;;;25.00;46.58;99471.02;1671450;83;21082;-70
2021/05/27 06:30:13;;;;;;;5.87;5.33;;;;;;;24.56;47.45;99475.76;1706830;83;21617;-69
2021/05/27 06:32:41;;;;;;;7.58;5.28;;;;;;;24.37;47.90;99470.25;1694240;83;21110;-68
2021/05/27 06:35:11;;;;;;;8.83;5.50;;;;;;;24.19;48.67;99470.77;1703473;83;21739;-71
2021/05/27 06:37:39;;;;;;;4.97;4.58;;;;;;;24.30;48.78;99469.61;1720354;83;21192;-70
2021/05/27 06:40:11;;;;;;;6.33;4.80;;;;;;;24.70;47.81;99468.13;1720112;83;21060;-70
2021/05/27 06:42:38;;;;;;;6.28;5.00;;;;;;;25.18;45.98;99470.75;1707611;83;21039;-68
2021/05/27 06:45:07;;;;;;;6.92;4.83;;;;;;;25.56;45.27;99485.89;1727161;83;21086;-72
2021/05/27 06:47:33;;;;;;;5.87;5.28;;;;;;;26.10;44.50;99486.54;1708948;83;21099;-73
2021/05/27 06:50:00;;;;;;;7.37;4.87;;;;;;;26.75;43.27;99478.46;1703732;83;21617;-71
2021/05/27 06:52:26;;;;;;;6.37;5.08;;;;;;;27.23;42.00;99488.31;1710216;82;21111;-72
2021/05/27 06:54:53;;;;;;;5.58;5.08;;;;;;;27.40;41.12;99484.61;1695948;83;21564;-70
2021/05/27 06:57:22;;;;;;;6.67;5.50;;;;;;;27.24;41.27;99487.77;1706807;81;21575;-69
2021/05/27 06:59:48;;;;;;;7.03;5.22;;;;;;;26.95;41.68;99481.32;1716483;82;21652;-70
2021/05/27 07:02:17;;;;;;;7.60;5.80;;;;;;;26.67;42.44;99473.82;1697349;82;21072;-69
2021/05/27 07:04:46;;;;;;;7.70;6.05;;;;;;;26.44;42.78;99474.13;1689878;83;21104;-68
2021/05/27 07:07:13;;;;;;;7.08;5.65;;;;;;;26.44;43.19;99469.52;1722462;81;21574;-69
2021/05/27 07:09:39;;;;;;;6.40;5.35;;;;;;;26.41;42.79;99467.34;1703021;83;21587;-70
2021/05/27 07:12:08;;;;;;;9.23;5.75;;;;;;;26.57;42.59;99468.81;1715981;83;21216;-71
2021/05/27 07:14:35;;;;;;;5.20;4.70;;;;;;;26.98;42.44;99466.44;1687992;83;21673;-71
2021/05/27 07:17:07;;;;;;;6.25;5.60;;;;;;;27.59;40.24;99474.09;1682059;83;21290;-69
2021/05/27 07:19:32;;;;;;;6.72;4.67;;;;;;;28.31;38.83;99469.70;1700919;83;21103;-72
2021/05/27 07:22:00;;;;;;;6.05;5.28;;;;;;;28.92;38.14;99463.47;1712434;83;21138;-66
2021/05/27 07:24:26;;;;;;;4.95;4.45;;;;;;;29.10;37.35;99467.50;1706846;83;21673;-67
2021/05/27 07:26:53;;;;;;;4.90;4.28;;;;;;;29.34;36.77;99463.65;1699810;83;21195;-67
2021/05/27 07:29:20;;;;;;;5.17;4.65;;;;;;;29.17;36.70;99457.72;1707565;83;21075;-68
2021/05/27 07:31:49;;;;;;;5.62;4.37;;;;;;;28.78;36.99;99451.50;1695225;83;21078;-69
2021/05/27 07:34:16;;;;;;;6.22;4.70;;;;;;;28.30;37.79;99449.05;1709282;82;21055;-70
2021/05/27 07:36:45;;;;;;;5.08;4.65;;;;;;;27.93;38.36;99462.30;1688407;82;21133;-70
2021/05/27 07:39:12;;;;;;;4.87;4.30;;;;;;;27.54;39.37;99455.09;1688262;84;21131;-70
2021/05/27 07:41:38;;;;;;;8.68;4.87;;;;;;;27.27;39.82;99454.16;1687154;84;21079;-72
2021/05/27 07:44:05;;;;;;;6.12;4.62;;;;;;;26.94;41.01;99449.05;1687792;84;21166;-69
2021/05/27 07:46:32;;;;;;;6.45;4.53;;;;;;;26.69;40.75;99448.61;1649552;86;21559;-68
2021/05/27 07:48:59;;;;;;;6.95;4.40;;;;;;;26.76;40.89;99449.73;1689062;83;21308;-71
2021/05/27 07:51:26;;;;;;;6.35;4.70;;;;;;;26.92;40.59;99449.31;1688162;84;21106;-69
2021/05/27 07:53:53;;;;;;;5.42;4.72;;;;;;;26.91;40.63;99452.57;1687695;85;21074;-73
2021/05/27 07:56:21;;;;;;;4.90;4.40;;;;;;;26.75;40.61;99447.27;1688350;84;21094;-71
2021/05/27 07:58:48;;;;;;;5.15;4.60;;;;;;;26.60;40.45;99441.23;1690832;85;21106;-70
2021/05/27 08:01:15;;;;;;;5.28;4.78;;;;;;;26.38;40.89;99438.57;1697180;83;21132;-68
2021/05/27 08:03:42;;;;;;;6.10;4.87;;;;;;;26.09;41.04;99436.13;1705137;82;21054;-70
2021/05/27 08:06:09;;;;;;;6.92;4.60;;;;;;;25.96;41.52;99429.22;1709952;83;21075;-69
2021/05/27 08:08:36;;;;;;;5.30;4.12;;;;;;;26.05;41.70;99423.63;1692719;81;21075;-69
2021/05/27 08:11:05;;;;;;;5.45;4.47;;;;;;;26.41;41.13;99428.03;1702313;82;21118;-65
2021/05/27 08:13:33;;;;;;;5.72;4.53;;;;;;;26.85;40.52;99422.95;1678488;81;21134;-70
2021/05/27 08:16:00;;;;;;;8.18;4.97;;;;;;;27.18;39.45;99425.05;1674602;82;21087;-69
2021/05/27 08:18:28;;;;;;;6.55;4.53;;;;;;;27.50;39.49;99429.01;1711011;82;21166;-70
2021/05/27 08:20:55;;;;;;;5.45;4.45;;;;;;;27.99;38.72;99420.47;1710718;82;21639;-74
2021/05/27 08:23:22;;;;;;;5.40;4.85;;;;;;;28.40;38.15;99419.69;1689241;83;21118;-67
2021/05/27 08:25:49;;;;;;;5.90;5.30;;;;;;;28.64;37.29;99418.62;1717034;83;21063;-70
2021/05/27 08:28:16;;;;;;;9.95;4.90;;;;;;;28.60;36.68;99417.55;1683104;83;21112;-69
2021/05/27 08:30:43;;;;;;;5.72;4.53;;;;;;;28.65;36.77;99417.52;1721835;82;22322;-67
2021/05/27 08:33:10;;;;;;;5.33;4.50;;;;;;;28.93;36.87;99416.66;1677095;84;21073;-70
2021/05/27 08:35:37;;;;;;;4.65;4.30;;;;;;;29.13;36.46;99425.31;1670195;82;21143;-68
2021/05/27 08:38:05;;;;;;;6.55;5.00;;;;;;;29.50;34.75;99421.41;1665808;84;21086;-68
2021/05/27 08:40:31;;;;;;;5.35;4.62;;;;;;;29.57;34.99;99419.16;1671526;84;21072;-65
2021/05/27 08:43:00;;;;;;;8.30;5.22;;;;;;;29.87;34.54;99418.76;1673100;84;21189;-65
2021/05/27 08:45:32;;;;;;;6.45;4.97;;;;;;;30.02;34.08;99411.86;1717679;83;21019;-71
2021/05/27 08:47:59;;;;;;;9.80;4.78;;;;;;;29.84;34.27;99411.97;1696873;83;21061;-66
2021/05/27 08:50:35;;;;;;;5.80;5.25;;;;;;;29.53;35.07;99412.09;1718569;83;21194;-67
2021/05/27 08:53:00;;;;;;;7.28;5.55;;;;;;;29.17;36.46;99411.45;1712021;83;21579;-67
2021/05/27 08:55:28;;;;;;;8.60;5.67;;;;;;;28.77;37.06;99415.33;1707607;83;21107;-66
2021/05/27 08:57:54;;;;;;;8.05;5.78;;;;;;;28.68;37.32;99414.26;1711539;83;21107;-66
2021/05/27 09:00:23;;;;;;;6.17;5.58;;;;;;;28.60;37.43;99416.99;1668120;83;21075;-64
2021/05/27 09:03:01;;;;;;;5.85;5.25;;;;;;;28.25;37.85;99421.86;1700529;82;21113;-71
2021/05/27 09:05:36;;;;;;;9.53;5.83;;;;;;;27.87;38.07;99428.84;1697734;81;21913;-73
2021/05/27 09:08:06;;;;;;;8.75;6.20;;;;;;;27.22;39.52;99425.59;1728458;81;21142;-68
2021/05/27 09:10:46;;;;;;;7.22;5.72;;;;;;;26.75;41.01;99434.55;1732720;81;21099;-69
2021/05/27 09:13:17;;;;;;;8.68;6.20;;;;;;;26.48;41.91;99427.80;1710111;81;21083;-64
2021/05/27 09:15:45;;;;;;;7.62;6.08;;;;;;;26.28;42.54;99427.92;1719854;81;21103;-69
2021/05/27 09:18:13;;;;;;;6.65;5.60;;;;;;;26.07;43.25;99432.34;1695322;82;21106;-65
2021/05/27 09:20:40;;;;;;;10.15;5.87;;;;;;;25.86;43.35;99434.52;1729928;81;21121;-69
2021/05/27 09:23:17;;;;;;;8.70;5.75;;;;;;;25.50;43.99;99433.58;1709187;82;21122;-66
2021/05/27 09:25:48;;;;;;;6.50;5.40;;;;;;;25.26;44.52;99428.13;1712847;82;21126;-71
2021/05/27 09:28:31;;;;;;;7.15;5.58;;;;;;;25.00;45.21;99424.50;1669276;84;21582;-72
2021/05/27 09:30:58;;;;;;;9.50;5.85;;;;;;;24.80;45.91;99416.09;1710764;82;21091;-71
2021/05/27 09:33:41;;;;;;;6.33;5.55;;;;;;;24.60;46.74;99420.69;1691073;83;21118;-70
2021/05/27 09:36:11;;;;;;;6.58;5.75;;;;;;;24.51;46.96;99414.83;1651412;83;21126;-73
2021/05/27 09:38:45;;;;;;;10.75;5.83;;;;;;;24.46;47.17;99412.03;1691279;82;21083;-68
2021/05/27 09:41:35;;;;;;;7.87;5.40;;;;;;;24.49;47.29;99411.55;1701450;82;21127;-72
2021/05/27 09:44:08;;;;;;;13.85;5.17;;;;;;;25.00;47.01;99411.52;1666431;85;21074;-70
2021/05/27 09:46:50;;;;;;;9.80;5.50;;;;;;;26.02;45.67;99412.52;1697446;83;21106;-70
2021/05/27 09:49:22;;;;;;;9.40;5.70;;;;;;;26.81;43.37;99410.45;1700580;83;21055;-71
2021/05/27 09:51:45;;;;;;;8.05;5.53;;;;;;;27.17;42.22;99410.64;1704141;82;21092;-70
2021/05/27 09:54:12;;;;;;;6.37;5.78;;;;;;;27.15;41.90;99408.73;1701254;83;21060;-67
2021/05/27 09:56:41;;;;;;;7.35;5.58;;;;;;;27.02;42.06;99403.23;1705656;83;21119;-71
2021/05/27 09:59:10;;;;;;;8.15;5.75;;;;;;;26.77;42.64;99406.63;1694281;83;21178;-69
2021/05/27 10:01:40;;;;;;;6.67;5.55;;;;;;;26.46;43.48;99406.91;1678917;84;21139;-75
2021/05/27 10:04:15;;;;;;;7.78;6.10;;;;;;;26.10;43.68;99404.72;1682199;83;21044;-71
2021/05/27 10:06:43;;;;;;;8.93;6.47;;;;;;;25.65;44.78;99405.87;1738496;82;21615;-69
2021/05/27 10:09:11;;;;;;;6.90;6.20;;;;;;;25.26;45.70;99406.48;1737495;81;21068;-66
2021/05/27 10:11:39;;;;;;;8.23;6.00;;;;;;;24.93;46.47;99405.47;1715469;81;21083;-73
2021/05/27 10:14:07;;;;;;;6.85;6.10;;;;;;;24.56;47.09;99409.55;1732703;81;21054;-76
2021/05/27 10:16:37;;;;;;;7.05;6.35;;;;;;;24.22;48.14;99405.97;1746600;81;21116;-77
2021/05/27 10:19:06;;;;;;;7.08;6.40;;;;;;;23.89;49.20;99398.66;1724196;82;21625;-72
2021/05/27 10:21:37;;;;;;;7.08;6.20;;;;;;;23.60;49.76;99405.36;1704307;81;21151;-69
2021/05/27 10:24:06;;;;;;;7.05;6.22;;;;;;;23.35;50.60;99404.34;1742361;82;21082;-75
2021/05/27 10:26:33;;;;;;;7.55;6.67;;;;;;;23.15;51.77;99404.72;1736207;81;21345;-71
2021/05/27 10:29:01;;;;;;;7.65;6.30;;;;;;;22.96;52.63;99404.02;1743540;81;21550;-71
2021/05/27 10:31:28;;;;;;;8.50;6.17;;;;;;;22.80;53.44;99405.53;1741822;82;21074;-72
2021/05/27 10:33:55;;;;;;;8.15;6.87;;;;;;;22.67;54.20;99405.27;1711884;82;21590;-67
2021/05/27 10:36:22;;;;;;;8.58;6.67;;;;;;;22.63;54.74;99404.91;1703042;83;21142;-74
2021/05/27 10:38:51;;;;;;;7.90;7.08;;;;;;;22.61;54.77;99402.98;1688329;83;21154;-72
2021/05/27 10:41:31;;;;;;;8.78;6.67;;;;;;;22.64;55.05;99399.80;1687897;83;21083;-70
2021/05/27 10:44:07;;;;;;;6.97;6.45;;;;;;;22.62;55.03;99402.45;1691412;83;22343;-68
2021/05/27 10:46:46;;;;;;;8.88;7.10;;;;;;;22.57;55.33;99396.39;1711948;83;21056;-72
2021/05/27 10:49:33;;;;;;;7.60;6.75;;;;;;;22.52;55.62;99394.95;1681097;83;21083;-69
2021/05/27 10:52:32;;;;;;;10.60;7.03;;;;;;;22.42;55.54;99389.30;1678363;83;21189;-66
2021/05/27 10:55:00;;;;;;;9.55;6.80;;;;;;;22.26;56.23;99383.55;1701199;83;21112;-68
2021/05/27 10:57:46;;;;;;;8.40;6.65;;;;;;;22.18;56.36;99384.37;1700736;82;21127;-69
2021/05/27 11:00:37;;;;;;;9.00;5.90;;;;;;;22.10;57.16;99384.99;1666178;84;21055;-68
2021/05/27 11:03:43;;;;;;;8.95;5.92;;;;;;;21.98;57.50;99389.55;1663384;84;21126;-71
2021/05/27 11:06:25;;;;;;;6.62;5.92;;;;;;;21.83;58.24;99392.66;1703253;81;21203;-70
2021/05/27 11:09:16;;;;;;;6.78;5.10;;;;;;;21.63;60.51;99405.56;1693117;82;21566;-70
2021/05/27 11:12:12;;;;;;;5.85;4.40;;;;;;;21.35;62.69;99406.09;1713729;83;21091;-70
2021/05/27 11:14:46;;;;;;;6.17;4.42;;;;;;;21.02;64.78;99405.42;1663392;82;21087;-72
2021/05/27 11:17:18;;;;;;;;;;;;;;;20.77;66.94;99405.45;1716750;81;21087;-66
2021/05/27 11:20:18;;;;;;;6.53;4.55;;;;;;;20.63;68.37;99409.30;1694386;83;20186;-67
2021/05/27 11:22:57;;;;;;;6.67;5.10;;;;;;;20.48;70.43;99416.30;1694477;83;21070;-68
2021/05/27 11:25:26;;;;;;;7.72;6.05;;;;;;;20.30;73.29;99413.87;1684755;83;21613;-67
2021/05/27 11:28:04;;;;;;;8.35;6.47;;;;;;;20.15;74.66;99417.39;1666807;84;21062;-67
2021/05/27 11:30:39;;;;;;;11.12;6.53;;;;;;;19.97;78.21;99414.94;1683966;84;21086;-64
2021/05/27 11:33:27;;;;;;;7.55;5.37;;;;;;;19.61;82.66;99409.32;1749086;81;21064;-66
2021/05/27 11:35:54;;;;;;;8.35;6.37;;;;;;;19.44;85.27;99416.50;1724828;81;21060;-67
2021/05/27 11:38:24;;;;;;;7.70;6.17;;;;;;;19.44;85.27;99416.50;1714439;83;21083;-67
2021/05/27 11:40:57;;;;;;;8.55;6.62;;;;;;;19.32;87.04;99417.69;1712009;82;21076;-67
2021/05/27 11:43:39;;;;;;;11.03;6.70;;;;;;;19.18;88.25;99411.52;1717449;81;21864;-68
2021/05/27 11:46:18;;;;;;;9.53;6.00;;;;;;;19.10;89.13;99405.06;1683055;83;21083;-65
2021/05/27 11:48:56;;;;;;;8.65;6.53;;;;;;;19.05;90.80;99410.22;1705263;81;21115;-69